M I D A S
Marine Information and Data Acquisition System
Tripno 1885 of the Zeeleeuw from 2010-05-21 06:58:12 to 2010-05-21 13:27:16
Back to CruiseResearch ActivitiesStationsMapUnderway DataData graphs

EquipmentUnitsComments
TimeDGPSUTC
LatitudeDGPSDM.mWGS84
LongitudeDGPSDM.mWGS84
SpeedMeteo Stationm/sRelative wind speed
DirectionMeteo StationdegRelative wind direction
TemperatureMeteo Stationdeg CelciusAir temperature
PressureMeteo StationPaAtmospheric pressure
HumidityMeteo Station%Relative humidity
Missing or incorrect values are displayed as -999
Metereological data collected by the RV Zeeleeuw from 2010-05-21 06:52:44 to 2010-05-21 13:36:57
Time Latitude Longitude Speed Direction Temperature Pressure Humidity
2010-05-21 06:53 51°13.677 2°55.889 2.7 40 14.2 103070 41
2010-05-21 06:54 51°13.698 2°55.789 1.4 265 14.1 103070 38
2010-05-21 06:55 51°13.706 2°55.726 2.6 260 13.9 103070 37
2010-05-21 06:56 51°13.716 2°55.731 2.9 33 13.9 103070 37
2010-05-21 06:57 51°13.701 2°55.724 2.5 319 13.8 103070 38
2010-05-21 06:58 51°13.747 2°55.696 4.6 339 13.6 103070 37
2010-05-21 06:59 51°13.861 2°55.607 5.2 341 13.4 103060 41
2010-05-21 07:00 51°13.998 2°55.519 5.8 338 13.2 103070 40
2010-05-21 07:01 51°14.136 2°55.416 5.6 340 13 103070 37
2010-05-21 07:02 51°14.287 2°55.294 5.9 342 12.9 103070 37
2010-05-21 07:03 51°14.439 2°55.112 6 340 12.8 103070 38
2010-05-21 07:04 51°14.619 2°54.937 6.9 345 12.6 103060 39
2010-05-21 07:05 51°14.805 2°54.742 7.9 344 12.4 103070 38
2010-05-21 07:06 51°15 2°54.562 7.1 344 12.3 103060 39
2010-05-21 07:07 51°15.195 2°54.377 6.6 344 12.2 103070 40
2010-05-21 07:08 51°15.367 2°54.146 6.8 344 12.2 103070 41
2010-05-21 07:09 51°15.548 2°53.929 7.2 343 12.1 103070 39
2010-05-21 07:10 51°15.722 2°53.704 7.6 344 12.1 103070 38
2010-05-21 07:11 51°15.896 2°53.483 6.8 345 12 103070 40
2010-05-21 07:12 51°16.071 2°53.267 7.1 344 12 103080 41
2010-05-21 07:13 51°16.257 2°53.072 7.4 342 12 103070 38
2010-05-21 07:14 51°16.454 2°52.894 7.8 342 12 103080 41
2010-05-21 07:15 51°16.656 2°52.726 7.6 342 12 103080 39
2010-05-21 07:16 51°16.862 2°52.567 7.7 342 12 103080 39
2010-05-21 07:17 51°17.067 2°52.403 7.8 340 12 103090 38
2010-05-21 07:18 51°17.283 2°52.276 8.6 340 12 103090 39
2010-05-21 07:19 51°17.512 2°52.201 8.2 339 12 103090 40
2010-05-21 07:20 51°17.743 2°52.142 8.3 339 12 103090 38
2010-05-21 07:21 51°17.977 2°52.16 8.6 336 12.1 103090 40
2010-05-21 07:22 51°18.212 2°52.221 8.3 336 12.1 103090 38
2010-05-21 07:23 51°18.449 2°52.273 8.9 337 12.1 103090 39
2010-05-21 07:24 51°18.684 2°52.303 10 336 12 103090 40
2010-05-21 07:25 51°18.919 2°52.328 8.5 336 12 103090 40
2010-05-21 07:26 51°19.154 2°52.352 8.9 338 12.1 103090 40
2010-05-21 07:27 51°19.39 2°52.376 8.4 336 12.1 103100 38
2010-05-21 07:28 51°19.627 2°52.404 9.5 337 12.1 103090 38
2010-05-21 07:29 51°19.862 2°52.434 9.2 338 12 103090 40
2010-05-21 07:30 51°20.097 2°52.461 8.9 337 12 103090 39
2010-05-21 07:31 51°20.331 2°52.49 9.1 338 12 103090 39
2010-05-21 07:32 51°20.565 2°52.519 8.7 337 12 103090 40
2010-05-21 07:33 51°20.799 2°52.55 8.9 337 12 103100 38
2010-05-21 07:34 51°21.033 2°52.58 9.3 337 12 103090 40
2010-05-21 07:35 51°21.269 2°52.617 8.6 338 12 103110 38
2010-05-21 07:36 51°21.505 2°52.655 8.9 338 12 103100 39
2010-05-21 07:37 51°21.742 2°52.693 9.1 336 12 103100 40
2010-05-21 07:38 51°21.981 2°52.732 9.5 338 12 103100 40
2010-05-21 07:39 51°22.219 2°52.772 9.3 339 12 103100 40
2010-05-21 07:40 51°22.457 2°52.814 10.4 337 12 103100 39
2010-05-21 07:41 51°22.697 2°52.857 9.3 339 12 103100 38
2010-05-21 07:42 51°22.938 2°52.9 9.4 338 12 103090 40
2010-05-21 07:43 51°23.178 2°52.941 9.3 338 12 103100 39
2010-05-21 07:44 51°23.42 2°52.982 9.1 337 12 103100 40
2010-05-21 07:45 51°23.662 2°53.028 9.1 338 12 103090 39
2010-05-21 07:46 51°23.904 2°53.085 9.2 339 11.9 103090 40
2010-05-21 07:47 51°24.146 2°53.139 8.5 338 11.9 103100 39
2010-05-21 07:48 51°24.383 2°53.181 8 338 11.9 103100 40
2010-05-21 07:49 51°24.62 2°53.22 9.1 338 11.9 103100 39
2010-05-21 07:50 51°24.855 2°53.262 9.2 337 11.9 103100 38
2010-05-21 07:51 51°25.092 2°53.301 9.3 338 11.9 103100 40
2010-05-21 07:52 51°25.329 2°53.339 8.2 337 11.9 103110 38
2010-05-21 07:53 51°25.566 2°53.379 9.2 337 11.9 103110 40
2010-05-21 07:54 51°25.806 2°53.422 9 336 11.9 103110 40
2010-05-21 07:55 51°26.047 2°53.469 8.8 337 11.9 103110 39
2010-05-21 07:56 51°26.287 2°53.514 8.6 336 11.9 103110 40
2010-05-21 07:57 51°26.526 2°53.562 8.9 336 11.9 103110 40
2010-05-21 07:58 51°26.766 2°53.609 8.5 338 11.9 103120 39
2010-05-21 07:59 51°27.007 2°53.657 8.9 337 11.9 103110 38
2010-05-21 08:00 51°27.248 2°53.708 9.3 338 11.9 103110 38
2010-05-21 08:01 51°27.489 2°53.755 8.5 338 11.9 103110 38
2010-05-21 08:02 51°27.73 2°53.802 8.9 336 11.9 103110 38
2010-05-21 08:03 51°27.972 2°53.847 9.1 337 11.9 103110 40
2010-05-21 08:04 51°28.214 2°53.892 8.7 338 11.8 103110 39
2010-05-21 08:05 51°28.455 2°53.938 9 338 11.8 103120 38
2010-05-21 08:06 51°28.697 2°53.985 9.3 338 11.8 103110 38
2010-05-21 08:07 51°28.937 2°54.03 9.1 339 11.8 103120 39
2010-05-21 08:08 51°29.172 2°54.074 9.2 338 11.7 103120 40
2010-05-21 08:09 51°29.415 2°54.124 9.2 338 11.7 103120 38
2010-05-21 08:10 51°29.655 2°54.178 8 338 11.8 103120 40
2010-05-21 08:11 51°29.898 2°54.235 9.5 337 11.8 103120 38
2010-05-21 08:12 51°30.141 2°54.292 9 338 11.8 103120 39
2010-05-21 08:13 51°30.383 2°54.35 8.6 337 11.8 103120 38
2010-05-21 08:14 51°30.625 2°54.407 9 338 11.7 103120 39
2010-05-21 08:15 51°30.864 2°54.461 9.1 337 11.7 103120 38
2010-05-21 08:16 51°31.111 2°54.508 8.6 337 11.7 103120 38
2010-05-21 08:17 51°31.354 2°54.552 8.7 339 11.6 103120 39
2010-05-21 08:18 51°31.591 2°54.596 8.8 336 11.6 103120 38
2010-05-21 08:19 51°31.837 2°54.641 8.9 337 11.6 103110 40
2010-05-21 08:20 51°32.074 2°54.683 8.5 338 11.6 103120 38
2010-05-21 08:21 51°32.315 2°54.723 9 339 11.6 103120 39
2010-05-21 08:22 51°32.545 2°54.757 6.9 339 11.6 103120 40
2010-05-21 08:23 51°32.692 2°54.779 5.2 341 11.6 103130 39
2010-05-21 08:24 51°32.79 2°54.802 4.2 342 11.6 103140 41
2010-05-21 08:25 51°32.868 2°54.816 3.9 344 11.6 103140 39
2010-05-21 08:26 51°32.928 2°54.822 3.3 348 11.5 103140 41
2010-05-21 08:27 51°32.977 2°54.824 3.1 346 11.5 103140 36
2010-05-21 08:28 51°33.018 2°54.826 2.8 349 11.4 103140 41
2010-05-21 08:29 51°33.053 2°54.828 3 350 11.4 103140 38
2010-05-21 08:30 51°33.084 2°54.83 2.7 349 11.4 103140 41
2010-05-21 08:31 51°33.11 2°54.834 2.6 348 11.3 103140 37
2010-05-21 08:32 51°33.135 2°54.837 2.4 348 11.3 103140 38
2010-05-21 08:33 51°33.157 2°54.84 2.3 345 11.3 103140 38
2010-05-21 08:34 51°33.177 2°54.844 2.5 347 11.3 103150 42
2010-05-21 08:35 51°33.196 2°54.848 2.6 347 11.3 103150 36
2010-05-21 08:36 51°33.214 2°54.853 2.4 344 11.3 103140 38
2010-05-21 08:37 51°33.231 2°54.856 2.4 344 11.3 103140 42
2010-05-21 08:38 51°33.248 2°54.859 2.5 344 11.3 103140 38
2010-05-21 08:39 51°33.308 2°54.91 4.6 322 11.4 103140 41
2010-05-21 08:40 51°33.318 2°55.109 5.1 318 11.4 103130 42
2010-05-21 08:41 51°33.266 2°55.368 5.3 317 11.5 103130 38
2010-05-21 08:42 51°33.204 2°55.611 4.2 32 11.6 103130 38
2010-05-21 08:43 51°33.207 2°55.763 3.5 315 11.7 103140 41
2010-05-21 08:44 51°33.221 2°55.833 2.8 242 11.8 103140 42
2010-05-21 08:45 51°33.23 2°55.858 2.7 259 11.9 103140 42
2010-05-21 08:46 51°33.236 2°55.876 1.8 262 12 103140 38
2010-05-21 08:47 51°33.241 2°55.89 1.2 265 12 103140 42
2010-05-21 08:48 51°33.246 2°55.903 1.3 265 12 103140 41
2010-05-21 08:49 51°33.25 2°55.914 1.7 263 12 103140 42
2010-05-21 08:50 51°33.255 2°55.925 1.6 264 12.1 103140 42
2010-05-21 08:51 51°33.259 2°55.934 1.7 264 12.1 103140 38
2010-05-21 08:52 51°33.263 2°55.944 2.9 258 12.1 103140 39
2010-05-21 08:53 51°33.268 2°55.954 3 258 12.1 103140 38
2010-05-21 08:54 51°33.273 2°55.965 2.9 256 12.2 103140 38
2010-05-21 08:55 51°33.278 2°55.976 2.6 252 12.3 103140 42
2010-05-21 08:56 51°33.285 2°55.987 2.7 250 12.4 103140 38
2010-05-21 08:57 51°33.292 2°55.998 2.3 250 12.5 103130 42
2010-05-21 08:58 51°33.299 2°56.01 2.8 250 12.5 103130 42
2010-05-21 08:59 51°33.305 2°56.021 2.4 256 12.6 103140 38
2010-05-21 09:00 51°33.311 2°56.032 2.5 253 12.7 103140 39
2010-05-21 09:01 51°33.317 2°56.044 2.8 249 12.7 103140 41
2010-05-21 09:02 51°33.324 2°56.055 2.5 249 12.8 103140 38
2010-05-21 09:03 51°33.331 2°56.067 2.5 21 12.8 103140 40
2010-05-21 09:04 51°33.339 2°56.081 2.7 245 12.9 103140 42
2010-05-21 09:05 51°33.346 2°56.093 2.8 246 13 103140 39
2010-05-21 09:06 51°33.354 2°56.105 2.5 243 13 103140 42
2010-05-21 09:07 51°33.355 2°56.139 2.9 248 13 103140 41
2010-05-21 09:08 51°33.319 2°56.185 1.3 261 13 103140 38
2010-05-21 09:09 51°33.254 2°56.172 -999 259 13.1 103140 39
2010-05-21 09:10 51°33.176 2°56.134 0.1 19 13.2 103140 40
2010-05-21 09:11 51°33.12 2°56.147 2 254 13.3 103140 42
2010-05-21 09:12 51°33.101 2°56.196 2.3 22 13.3 103140 42
2010-05-21 09:13 51°33.103 2°56.246 2.8 240 13.3 103140 38
2010-05-21 09:14 51°33.109 2°56.285 2.7 243 13.3 103130 38
2010-05-21 09:15 51°33.114 2°56.316 2.4 247 13.3 103140 42
2010-05-21 09:16 51°33.118 2°56.342 2.5 248 13.3 103140 42
2010-05-21 09:17 51°33.124 2°56.365 2.6 247 13.3 103140 37
2010-05-21 09:18 51°33.131 2°56.384 2.5 248 13.4 103140 38
2010-05-21 09:19 51°33.138 2°56.4 2.4 249 13.5 103140 43
2010-05-21 09:20 51°33.145 2°56.415 2.2 250 13.5 103140 42
2010-05-21 09:21 51°33.152 2°56.429 2.1 250 13.5 103150 38
2010-05-21 09:22 51°33.159 2°56.441 2.5 254 13.5 103140 39
2010-05-21 09:23 51°33.166 2°56.452 2.5 255 13.5 103150 38
2010-05-21 09:24 51°33.172 2°56.462 2.6 257 13.5 103150 42
2010-05-21 09:25 51°33.179 2°56.471 2.1 254 13.6 103150 41
2010-05-21 09:26 51°33.185 2°56.479 2.6 256 13.6 103150 38
2010-05-21 09:27 51°33.192 2°56.487 2.1 258 13.6 103150 38
2010-05-21 09:28 51°33.198 2°56.495 2.4 259 13.6 103150 38
2010-05-21 09:29 51°33.204 2°56.502 2.6 258 13.6 103150 42
2010-05-21 09:30 51°33.21 2°56.509 2.8 258 13.5 103150 41
2010-05-21 09:31 51°33.217 2°56.516 2.2 256 13.5 103150 41
2010-05-21 09:32 51°33.224 2°56.522 3 258 13.5 103160 38
2010-05-21 09:33 51°33.23 2°56.528 3 257 13.5 103160 40
2010-05-21 09:34 51°33.237 2°56.533 2.9 257 13.5 103160 41
2010-05-21 09:35 51°33.244 2°56.538 2.9 257 13.5 103160 42
2010-05-21 09:36 51°33.25 2°56.543 3.1 256 13.5 103160 39
2010-05-21 09:37 51°33.257 2°56.547 3.1 257 13.5 103160 37
2010-05-21 09:38 51°33.263 2°56.55 3 255 13.5 103160 38
2010-05-21 09:39 51°33.27 2°56.554 2.9 254 13.5 103160 42
2010-05-21 09:40 51°33.276 2°56.558 3 258 13.5 103160 41
2010-05-21 09:41 51°33.282 2°56.561 2.9 255 13.5 103160 37
2010-05-21 09:42 51°33.288 2°56.564 2.4 256 13.5 103160 42
2010-05-21 09:43 51°33.293 2°56.567 2.4 255 13.6 103160 38
2010-05-21 09:44 51°33.299 2°56.57 3 257 13.6 103160 38
2010-05-21 09:45 51°33.304 2°56.573 2.6 255 13.6 103160 42
2010-05-21 09:46 51°33.309 2°56.576 2.7 255 13.6 103160 38
2010-05-21 09:47 51°33.314 2°56.579 3.1 256 13.6 103150 38
2010-05-21 09:48 51°33.319 2°56.581 2.7 257 13.6 103160 38
2010-05-21 09:49 51°33.323 2°56.583 2.8 257 13.6 103160 38
2010-05-21 09:50 51°33.328 2°56.586 3.1 257 13.6 103150 39
2010-05-21 09:51 51°33.332 2°56.587 2.8 256 13.6 103160 37
2010-05-21 09:52 51°33.334 2°56.594 2.8 256 13.6 103160 38
2010-05-21 09:53 51°33.324 2°56.613 1.8 269 13.7 103150 38
2010-05-21 09:54 51°33.301 2°56.615 0.1 38 13.5 103160 42
2010-05-21 09:55 51°33.28 2°56.584 -999 44 13.3 103160 39
2010-05-21 09:56 51°33.268 2°56.53 1.3 34 13.2 103160 38
2010-05-21 09:57 51°33.251 2°56.454 0.2 25 13 103160 38
2010-05-21 09:58 51°33.173 2°56.328 -999 334 12.9 103160 39
2010-05-21 09:59 51°33.089 2°56.207 0.9 15 12.8 103160 43
2010-05-21 10:00 51°33.087 2°56.112 2.2 19 12.7 103170 42
2010-05-21 10:01 51°33.102 2°56.058 2.6 12 12.6 103160 42
2010-05-21 10:02 51°33.118 2°56.025 2.4 9 12.4 103170 42
2010-05-21 10:03 51°33.133 2°56.001 2.5 8 12.4 103170 37
2010-05-21 10:04 51°33.146 2°55.982 2.2 6 12.2 103160 42
2010-05-21 10:05 51°33.157 2°55.967 2.1 2 12.2 103170 41
2010-05-21 10:06 51°33.167 2°55.954 1.9 5 12.1 103160 37
2010-05-21 10:07 51°33.176 2°55.943 1.8 -999 12.1 103160 42
2010-05-21 10:08 51°33.183 2°55.932 1.8 359 12 103160 42
2010-05-21 10:09 51°33.189 2°55.92 2.3 359 12 103170 38
2010-05-21 10:10 51°33.195 2°55.91 2.7 358 11.9 103160 38
2010-05-21 10:11 51°33.198 2°55.898 1.7 -999 11.9 103170 42
2010-05-21 10:12 51°33.201 2°55.887 2.4 5 11.8 103170 39
2010-05-21 10:13 51°33.203 2°55.875 2 7 11.8 103170 37
2010-05-21 10:14 51°33.205 2°55.864 2.6 10 11.8 103170 39
2010-05-21 10:15 51°33.206 2°55.854 2.1 14 11.9 103170 38
2010-05-21 10:16 51°33.207 2°55.845 2.5 20 11.9 103170 38
2010-05-21 10:17 51°33.208 2°55.834 2.2 24 11.9 103170 43
2010-05-21 10:18 51°33.209 2°55.824 1.8 25 12 103170 40
2010-05-21 10:19 51°33.209 2°55.815 1.9 26 12 103170 42
2010-05-21 10:20 51°33.209 2°55.806 1.9 32 12.1 103170 38
2010-05-21 10:21 51°33.209 2°55.797 2.2 30 12.1 103170 38
2010-05-21 10:22 51°33.209 2°55.788 2 33 12.1 103170 42
2010-05-21 10:23 51°33.21 2°55.78 2.1 31 12.1 103170 42
2010-05-21 10:24 51°33.21 2°55.772 1.5 30 12.1 103170 43
2010-05-21 10:25 51°33.21 2°55.765 2 34 12.2 103170 41
2010-05-21 10:26 51°33.208 2°55.758 1.7 33 12.2 103170 40
2010-05-21 10:27 51°33.207 2°55.75 1.7 30 12.2 103170 42
2010-05-21 10:28 51°33.207 2°55.742 1.7 30 12.2 103160 42
2010-05-21 10:29 51°33.206 2°55.735 1.9 34 12.2 103170 42
2010-05-21 10:30 51°33.204 2°55.727 1.8 36 12.2 103170 42
2010-05-21 10:31 51°33.204 2°55.71 1.7 26 12.2 103160 42
2010-05-21 10:32 51°33.215 2°55.67 1.6 6 12.2 103160 42
2010-05-21 10:33 51°33.243 2°55.64 2.6 347 12.1 103160 41
2010-05-21 10:34 51°33.277 2°55.643 3.4 330 12.1 103160 40
2010-05-21 10:35 51°33.3 2°55.675 2.8 317 12.2 103160 42
2010-05-21 10:36 51°33.31 2°55.702 2.8 41 12.3 103160 38
2010-05-21 10:37 51°33.315 2°55.722 2.2 35 12.4 103160 38
2010-05-21 10:38 51°33.32 2°55.735 2 33 12.4 103160 41
2010-05-21 10:39 51°33.323 2°55.744 2.3 32 12.5 103160 42
2010-05-21 10:40 51°33.325 2°55.748 2 317 12.5 103160 39
2010-05-21 10:41 51°33.326 2°55.748 1.6 317 12.6 103160 42
2010-05-21 10:42 51°33.327 2°55.746 1.5 319 12.7 103160 43
2010-05-21 10:43 51°33.328 2°55.741 1.8 322 12.7 103160 40
2010-05-21 10:44 51°33.328 2°55.734 1.8 326 12.7 103160 39
2010-05-21 10:45 51°33.327 2°55.726 1.6 324 12.8 103160 40
2010-05-21 10:46 51°33.325 2°55.715 1.4 325 12.9 103160 38
2010-05-21 10:47 51°33.323 2°55.704 1.5 324 13 103160 40
2010-05-21 10:48 51°33.32 2°55.691 1.6 324 13 103170 43
2010-05-21 10:49 51°33.316 2°55.678 1.5 322 13.1 103170 40
2010-05-21 10:50 51°33.312 2°55.664 1.4 320 13.1 103170 40
2010-05-21 10:51 51°33.308 2°55.651 1.4 320 13.2 103170 42
2010-05-21 10:52 51°33.307 2°55.653 2.6 316 13.2 103170 41
2010-05-21 10:53 51°33.323 2°55.709 3.4 320 13.2 103170 41
2010-05-21 10:54 51°33.346 2°55.772 3.1 321 13.2 103170 43
2010-05-21 10:55 51°33.369 2°55.832 2.9 321 13.2 103170 40
2010-05-21 10:56 51°33.395 2°55.89 3.2 324 13.2 103170 43
2010-05-21 10:57 51°33.441 2°55.907 3.4 344 13.2 103170 39
2010-05-21 10:58 51°33.501 2°55.784 3.6 351 13 103170 42
2010-05-21 10:59 51°33.494 2°55.483 4.7 342 12.7 103170 38
2010-05-21 11:00 51°33.449 2°55.154 3.8 340 12.5 103170 42
2010-05-21 11:01 51°33.339 2°54.85 3.9 339 12.5 103170 42
2010-05-21 11:02 51°33.226 2°54.548 3.8 339 12.5 103170 40
2010-05-21 11:03 51°33.112 2°54.245 4.1 340 12.6 103170 39
2010-05-21 11:04 51°32.971 2°53.966 4.5 335 12.7 103170 40
2010-05-21 11:05 51°32.816 2°53.685 4 339 12.7 103170 39
2010-05-21 11:06 51°32.62 2°53.474 3.9 331 12.7 103180 39
2010-05-21 11:07 51°32.401 2°53.361 3.7 328 12.7 103170 39
2010-05-21 11:08 51°32.182 2°53.249 3.9 330 12.7 103180 39
2010-05-21 11:09 51°31.954 2°53.124 4.1 329 12.7 103180 41
2010-05-21 11:10 51°31.74 2°53.004 4 329 12.7 103180 39
2010-05-21 11:11 51°31.538 2°52.866 3.5 335 12.7 103180 40
2010-05-21 11:12 51°31.336 2°52.67 3.7 333 12.7 103180 42
2010-05-21 11:13 51°31.148 2°52.488 2.4 334 12.7 103180 39
2010-05-21 11:14 51°31.04 2°52.419 0.1 245 12.8 103180 40
2010-05-21 11:15 51°31.024 2°52.405 0.8 31 12.8 103180 39
2010-05-21 11:16 51°31.042 2°52.413 0.2 39 13 103180 41
2010-05-21 11:17 51°31.055 2°52.413 1.2 34 13.3 103180 41
2010-05-21 11:18 51°31.059 2°52.405 1.1 35 13 103180 38
2010-05-21 11:19 51°31.053 2°52.392 2.1 35 12.9 103180 38
2010-05-21 11:20 51°31.044 2°52.38 2.1 33 12.8 103180 41
2010-05-21 11:21 51°31.037 2°52.37 1.6 265 12.7 103180 39
2010-05-21 11:22 51°31.03 2°52.363 2.3 256 12.8 103180 38
2010-05-21 11:23 51°31.024 2°52.36 2.3 246 13 103180 41
2010-05-21 11:24 51°31.02 2°52.362 1.8 239 13.1 103180 39
2010-05-21 11:25 51°31.018 2°52.365 2.1 235 13.2 103180 42
2010-05-21 11:26 51°31.016 2°52.369 2.2 37 13.3 103180 42
2010-05-21 11:27 51°31.015 2°52.37 2 40 13.3 103180 42
2010-05-21 11:28 51°31.015 2°52.368 2.2 38 13.2 103180 41
2010-05-21 11:29 51°31.015 2°52.367 1.7 317 13.2 103180 41
2010-05-21 11:30 51°31.016 2°52.367 1.6 320 13.2 103180 39
2010-05-21 11:31 51°31.017 2°52.366 1.6 320 13.3 103180 38
2010-05-21 11:32 51°31.017 2°52.365 1.2 319 13.3 103170 39
2010-05-21 11:33 51°31.017 2°52.365 1.4 323 13.3 103170 38
2010-05-21 11:34 51°31.017 2°52.365 1.9 322 13.4 103170 39
2010-05-21 11:35 51°31.018 2°52.365 1.6 324 13.4 103170 40
2010-05-21 11:36 51°31.018 2°52.366 1.4 328 13.5 103170 40
2010-05-21 11:37 51°31.017 2°52.366 1.3 328 13.5 103160 42
2010-05-21 11:38 51°31.017 2°52.366 2.1 326 13.6 103170 43
2010-05-21 11:39 51°31.017 2°52.365 1.7 328 13.6 103170 41
2010-05-21 11:40 51°31.017 2°52.365 1.9 326 13.6 103170 40
2010-05-21 11:41 51°31.017 2°52.365 1.9 328 13.7 103160 39
2010-05-21 11:42 51°31.018 2°52.365 1.8 329 13.7 103170 39
2010-05-21 11:43 51°31.018 2°52.365 2.1 328 13.7 103160 39
2010-05-21 11:44 51°31.018 2°52.365 2.1 332 13.6 103170 39
2010-05-21 11:45 51°31.017 2°52.365 1.9 329 13.7 103160 39
2010-05-21 11:46 51°31.018 2°52.365 2.2 331 13.8 103160 39
2010-05-21 11:47 51°31.018 2°52.365 2.2 328 13.8 103170 42
2010-05-21 11:48 51°31.018 2°52.365 1.9 329 13.8 103160 42
2010-05-21 11:49 51°31.017 2°52.366 2.2 327 13.9 103170 43
2010-05-21 11:50 51°31.017 2°52.367 2.1 323 13.9 103170 43
2010-05-21 11:51 51°31.017 2°52.367 2.2 326 13.8 103170 43
2010-05-21 11:52 51°31.017 2°52.368 2.1 324 13.8 103170 39
2010-05-21 11:53 51°31.016 2°52.368 1.9 323 13.9 103170 39
2010-05-21 11:54 51°31.016 2°52.369 2.1 325 13.9 103170 43
2010-05-21 11:55 51°31.017 2°52.369 2.1 324 13.9 103170 42
2010-05-21 11:56 51°31.016 2°52.368 2 325 13.9 103170 43
2010-05-21 11:57 51°31.017 2°52.368 2.2 324 13.9 103170 40
2010-05-21 11:58 51°31.016 2°52.369 2.1 323 14 103170 42
2010-05-21 11:59 51°31.016 2°52.368 1.7 322 14 103170 39
2010-05-21 12:00 51°31.016 2°52.368 1.9 323 14 103170 43
2010-05-21 12:01 51°31.015 2°52.369 2.3 322 14.1 103170 42
2010-05-21 12:02 51°31.016 2°52.37 2.2 320 14.1 103180 38
2010-05-21 12:03 51°31.016 2°52.379 2.4 38 14.1 103180 38
2010-05-21 12:04 51°31.014 2°52.393 2.4 32 14 103170 39
2010-05-21 12:05 51°31.01 2°52.404 2.2 229 13.9 103180 42
2010-05-21 12:06 51°31.005 2°52.412 2.2 34 13.8 103180 42
2010-05-21 12:07 51°31.002 2°52.425 2.4 37 13.7 103180 42
2010-05-21 12:08 51°30.986 2°52.473 1.7 249 13.7 103170 38
2010-05-21 12:09 51°30.915 2°52.533 2.1 38 13.7 103180 37
2010-05-21 12:10 51°30.774 2°52.6 1.9 322 13.7 103170 38
2010-05-21 12:11 51°30.594 2°52.605 2.8 323 13.7 103180 41
2010-05-21 12:12 51°30.405 2°52.649 3 326 13.7 103180 39
2010-05-21 12:13 51°30.189 2°52.713 3.9 327 13.7 103170 38
2010-05-21 12:14 51°29.963 2°52.781 4.3 325 13.7 103170 42
2010-05-21 12:15 51°29.737 2°52.851 3.5 324 13.6 103170 38
2010-05-21 12:16 51°29.508 2°52.921 3.4 325 13.7 103170 40
2010-05-21 12:17 51°29.286 2°52.988 4 324 13.7 103170 38
2010-05-21 12:18 51°29.06 2°53.056 3.3 324 13.7 103170 42
2010-05-21 12:19 51°28.833 2°53.124 3.6 325 13.7 103170 37
2010-05-21 12:20 51°28.603 2°53.192 3.4 327 13.8 103170 39
2010-05-21 12:21 51°28.376 2°53.261 4 325 13.8 103170 42
2010-05-21 12:22 51°28.144 2°53.332 3.4 326 13.8 103170 42
2010-05-21 12:23 51°27.916 2°53.386 3.4 332 13.7 103170 39
2010-05-21 12:24 51°27.68 2°53.39 3.3 326 13.7 103170 38
2010-05-21 12:25 51°27.449 2°53.393 3.3 329 13.6 103170 38
2010-05-21 12:26 51°27.215 2°53.393 3.3 329 13.7 103160 42
2010-05-21 12:27 51°26.979 2°53.394 3.2 325 13.7 103160 41
2010-05-21 12:28 51°26.744 2°53.397 3.3 326 13.7 103160 38
2010-05-21 12:29 51°26.51 2°53.401 2.9 324 13.8 103160 42
2010-05-21 12:30 51°26.277 2°53.409 3 323 13.9 103160 41
2010-05-21 12:31 51°26.041 2°53.418 3.2 323 13.9 103160 39
2010-05-21 12:32 51°25.812 2°53.426 2.9 324 14 103150 39
2010-05-21 12:33 51°25.579 2°53.435 3.1 323 14 103160 42
2010-05-21 12:34 51°25.34 2°53.442 3.2 326 14.1 103150 43
2010-05-21 12:35 51°25.108 2°53.451 2.5 323 14.1 103150 39
2010-05-21 12:36 51°24.873 2°53.454 2.8 324 14.1 103150 42
2010-05-21 12:37 51°24.639 2°53.454 2.6 324 14.1 103160 39
2010-05-21 12:38 51°24.401 2°53.457 2.5 323 14.1 103160 41
2010-05-21 12:39 51°24.163 2°53.459 2.7 329 14.1 103160 38
2010-05-21 12:40 51°23.924 2°53.483 3 322 14.1 103160 42
2010-05-21 12:41 51°23.684 2°53.515 2.3 322 14.2 103160 42
2010-05-21 12:42 51°23.448 2°53.549 2.8 326 14.2 103150 41
2010-05-21 12:43 51°23.215 2°53.583 2.7 325 14.2 103150 41
2010-05-21 12:44 51°22.974 2°53.615 2 322 14.2 103150 39
2010-05-21 12:45 51°22.736 2°53.648 2.4 324 14.1 103150 39
2010-05-21 12:46 51°22.504 2°53.675 1.8 326 14.2 103140 39
2010-05-21 12:47 51°22.272 2°53.707 2.4 328 14.2 103150 42
2010-05-21 12:48 51°22.038 2°53.738 1.7 321 14.3 103150 39
2010-05-21 12:49 51°21.804 2°53.748 1.6 336 14.3 103150 38
2010-05-21 12:50 51°21.584 2°53.599 3.4 350 14.1 103150 39
2010-05-21 12:51 51°21.381 2°53.371 3 351 13.8 103140 43
2010-05-21 12:52 51°21.181 2°53.156 3.3 351 13.5 103140 42
2010-05-21 12:53 51°20.975 2°52.941 3.4 350 13.3 103140 40
2010-05-21 12:54 51°20.769 2°52.728 3.1 349 13.2 103140 39
2010-05-21 12:55 51°20.561 2°52.517 3.4 350 13.1 103140 39
2010-05-21 12:56 51°20.344 2°52.339 2.3 344 13 103140 39
2010-05-21 12:57 51°20.109 2°52.284 1.5 330 13.1 103140 42
2010-05-21 12:58 51°19.87 2°52.263 2.2 329 13.3 103140 39
2010-05-21 12:59 51°19.632 2°52.227 1.6 332 13.5 103140 40
2010-05-21 13:00 51°19.393 2°52.189 2.4 332 13.6 103140 43
2010-05-21 13:01 51°19.153 2°52.163 1.5 331 13.8 103150 42
2010-05-21 13:02 51°18.913 2°52.155 1.6 326 13.9 103140 42
2010-05-21 13:03 51°18.672 2°52.144 1.4 327 13.9 103140 43
2010-05-21 13:04 51°18.43 2°52.133 1.5 333 14 103140 39
2010-05-21 13:05 51°18.188 2°52.126 1.6 328 14.2 103140 42
2010-05-21 13:06 51°17.946 2°52.12 0.9 325 14.3 103140 41
2010-05-21 13:07 51°17.703 2°52.112 1.3 330 14.3 103140 42
2010-05-21 13:08 51°17.459 2°52.112 0.9 323 14.4 103140 41
2010-05-21 13:09 51°17.217 2°52.115 1.1 322 14.5 103140 40
2010-05-21 13:10 51°16.976 2°52.131 1.8 35 14.6 103140 41
2010-05-21 13:11 51°16.774 2°52.288 3.7 235 14.6 103140 43
2010-05-21 13:12 51°16.576 2°52.46 3.3 235 14.6 103130 39
2010-05-21 13:13 51°16.385 2°52.613 3.5 236 14.5 103130 42
2010-05-21 13:14 51°16.215 2°52.778 4.5 243 14.4 103130 38
2010-05-21 13:15 51°16.075 2°52.969 4.9 244 14.3 103130 41
2010-05-21 13:16 51°15.946 2°53.156 4.8 242 14.3 103130 38
2010-05-21 13:17 51°15.816 2°53.338 3.8 245 14.2 103130 39
2010-05-21 13:18 51°15.692 2°53.52 4.5 238 14.2 103120 38
2010-05-21 13:19 51°15.571 2°53.713 4.6 243 14.2 103120 38
2010-05-21 13:20 51°15.43 2°53.878 4.3 246 14.2 103120 41
2010-05-21 13:21 51°15.29 2°54.046 4.8 246 14.1 103120 41
2010-05-21 13:22 51°15.147 2°54.216 4.3 247 14.1 103120 38
2010-05-21 13:23 51°15.009 2°54.383 4.6 246 14.1 103120 41
2010-05-21 13:24 51°14.874 2°54.56 5.2 246 14.2 103120 38
2010-05-21 13:25 51°14.732 2°54.724 4.4 244 14.1 103120 38
2010-05-21 13:26 51°14.597 2°54.911 4.8 243 14.1 103120 40
2010-05-21 13:27 51°14.468 2°55.108 5.2 246 14.1 103120 38
2010-05-21 13:28 51°14.322 2°55.275 3.9 244 14.1 103120 37
2010-05-21 13:29 51°14.176 2°55.383 1.6 261 14.1 103120 37
2010-05-21 13:30 51°14.051 2°55.469 3 269 14.2 103120 38
2010-05-21 13:31 51°13.928 2°55.554 1.8 36 14.2 103120 42
2010-05-21 13:32 51°13.819 2°55.63 2.3 264 14.3 103120 37
2010-05-21 13:33 51°13.744 2°55.726 4.7 257 14.3 103120 37
2010-05-21 13:34 51°13.699 2°55.829 3.8 254 14.3 103120 38
2010-05-21 13:35 51°13.671 2°55.92 4.6 252 14.3 103120 41
2010-05-21 13:36 51°13.662 2°55.96 3.3 34 14.5 103120 39